createdAt,value
2022-12-28T00:04:12.828Z,6.6
2022-12-28T00:09:35.205Z,6.6
2022-12-28T00:15:47.432Z,6.6
2022-12-28T00:21:10.591Z,6.8
2022-12-28T00:26:34.685Z,6.9
2022-12-28T00:31:58.987Z,6.8
2022-12-28T00:38:02.711Z,6.9
2022-12-28T00:43:32.852Z,6.5
2022-12-28T00:48:54.799Z,6.1
2022-12-28T00:54:17.783Z,6.1
2022-12-28T00:59:40.403Z,6.1
2022-12-28T01:05:03.718Z,5.9
2022-12-28T01:10:11.274Z,6.1
2022-12-28T01:15:33.837Z,6.1
2022-12-28T01:20:44.756Z,6.3
2022-12-28T01:26:07.140Z,6.3
2022-12-28T01:31:30.074Z,6.3
2022-12-28T01:36:36.494Z,6.2
2022-12-28T01:41:59.399Z,6.1
2022-12-28T01:47:29.684Z,6.1
2022-12-28T01:52:36.770Z,6.1
2022-12-28T01:57:45.155Z,6
2022-12-28T02:02:53.114Z,6
2022-12-28T02:07:59.132Z,5.9
2022-12-28T02:14:11.205Z,5.9
2022-12-28T02:19:07.592Z,5.8
2022-12-28T02:24:28.976Z,5.8
2022-12-28T02:29:33.810Z,5.8
2022-12-28T02:34:58.098Z,5.7
2022-12-28T02:40:20.228Z,5.7
2022-12-28T02:45:27.334Z,5.8
2022-12-28T02:50:49.731Z,5.9
2022-12-28T02:55:56.597Z,5.9
2022-12-28T03:06:34.061Z,5.8
2022-12-28T03:11:56.431Z,5.8
2022-12-28T03:17:07.136Z,5.8
2022-12-28T03:22:13.168Z,5.8
2022-12-28T03:27:19.893Z,5.8
2022-12-28T03:32:42.937Z,5.6
2022-12-28T03:38:04.527Z,5.4
2022-12-28T03:43:26.669Z,5.3
2022-12-28T03:49:14.133Z,5.2
2022-12-28T03:54:35.747Z,5.1
2022-12-28T03:59:57.635Z,5
2022-12-28T04:05:21.813Z,4.9
2022-12-28T04:10:43.925Z,5
2022-12-28T04:16:11.837Z,5.1
2022-12-28T04:21:34.790Z,5.1
2022-12-28T04:26:56.121Z,5.1
2022-12-28T04:42:14.597Z,5.1
2022-12-28T04:47:40.524Z,5.2
2022-12-28T04:52:47.841Z,5.3
2022-12-28T04:58:26.340Z,5.3
2022-12-28T05:03:57.962Z,5.3
2022-12-28T05:09:06.867Z,5.3
2022-12-28T05:14:33.690Z,5.3
2022-12-28T05:19:43.296Z,5.3
2022-12-28T05:24:55.916Z,5.3
2022-12-28T05:30:18.560Z,5.2
2022-12-28T05:35:42.102Z,5.2
2022-12-28T05:41:06.185Z,5.2
2022-12-28T05:46:18.620Z,5.2
2022-12-28T05:51:46.579Z,5.1
2022-12-28T05:57:13.200Z,5.1
2022-12-28T06:02:24.625Z,5.1
2022-12-28T06:07:47.571Z,5.1
2022-12-28T06:13:12.833Z,5.1
2022-12-28T06:18:20.187Z,5.1
2022-12-28T06:23:33.275Z,5.1
2022-12-28T06:28:56.052Z,5.2
2022-12-28T06:34:20.561Z,5.1
2022-12-28T06:39:47.317Z,5.2
2022-12-28T06:45:37.239Z,5.3
2022-12-28T06:51:00.457Z,5.4
2022-12-28T06:56:22.831Z,5.6
2022-12-28T07:01:37.558Z,5.6
2022-12-28T07:07:01.378Z,5.7
2022-12-28T07:12:29.047Z,5.8
2022-12-28T07:17:58.154Z,5.9
2022-12-28T07:23:20.700Z,6.1
2022-12-28T07:28:28.095Z,6.4
2022-12-28T07:33:43.111Z,6.6
2022-12-28T07:39:11.821Z,6.8
2022-12-28T07:44:38.096Z,6.6
2022-12-28T07:50:01.563Z,6.6
2022-12-28T07:55:27.678Z,6.4
2022-12-28T08:00:56.135Z,6.4
2022-12-28T08:06:05.684Z,6.5
2022-12-28T08:10:57.096Z,6.5
2022-12-28T08:16:04.649Z,6.4
2022-12-28T08:21:29.286Z,6.5
2022-12-28T08:26:36.026Z,6.4
2022-12-28T08:31:43.680Z,6.5
2022-12-28T08:36:35.786Z,6.5
2022-12-28T08:41:47.864Z,6.4
2022-12-28T08:46:55.753Z,6.4
2022-12-28T08:52:22.731Z,6.4
2022-12-28T08:57:51.607Z,6.6
2022-12-28T09:03:00.013Z,6.6
2022-12-28T09:08:32.970Z,6.5
2022-12-28T09:13:55.604Z,6.6
2022-12-28T09:19:11.607Z,6.5
2022-12-28T09:24:03.672Z,6.7
2022-12-28T09:29:11.532Z,6.6
2022-12-28T09:35:15.316Z,6.7
2022-12-28T09:40:22.837Z,6.7
2022-12-28T09:45:45.729Z,6.8
2022-12-28T09:51:08.903Z,6.9
2022-12-28T09:56:35.018Z,6.9
2022-12-28T10:01:41.897Z,7
2022-12-28T10:06:34.917Z,7
2022-12-28T10:11:42.211Z,7.1
2022-12-28T10:17:29.292Z,7.4
2022-12-28T10:23:06.245Z,7.7
2022-12-28T10:29:05.626Z,7.8
2022-12-28T10:34:34.532Z,7.9
2022-12-28T10:40:03.475Z,7.9
2022-12-28T11:05:24.695Z,7.9
2022-12-28T11:10:47.659Z,8
2022-12-28T11:15:59.825Z,7.9
2022-12-28T11:21:14.084Z,7.4
2022-12-28T11:26:41.390Z,7.5
2022-12-28T11:31:50.537Z,7.5
2022-12-28T11:37:00.889Z,7.4
2022-12-28T11:42:53.003Z,7.3
2022-12-28T11:48:18.784Z,7.5
2022-12-28T11:53:46.749Z,7.6
2022-12-28T11:58:54.494Z,7.8
2022-12-28T12:09:30.559Z,7.6
2022-12-28T12:14:55.190Z,7.6
2022-12-28T12:20:20.479Z,7.6
2022-12-28T12:25:49.217Z,7.8
2022-12-28T12:30:58.872Z,7.8
2022-12-28T12:36:21.809Z,7.5
2022-12-28T12:41:44.198Z,7.4
2022-12-28T12:47:07.524Z,7.3
2022-12-28T12:52:28.591Z,7.2
2022-12-28T12:57:51.684Z,7.3
2022-12-28T13:03:16.138Z,7.3
2022-12-28T13:08:38.882Z,7.1
2022-12-28T13:14:04.625Z,6.8
2022-12-28T13:19:44.550Z,6.9
2022-12-28T13:25:12.351Z,6.8
2022-12-28T13:30:39.120Z,6.8
2022-12-28T13:36:05.929Z,6.9
2022-12-28T13:40:57.744Z,6.9
2022-12-28T13:46:24.133Z,6.8
2022-12-28T13:51:53.043Z,6.8
2022-12-28T13:57:59.032Z,6.8
2022-12-28T14:03:23.316Z,6.8
2022-12-28T14:09:38.411Z,6.7
2022-12-28T14:15:00.939Z,6.8
2022-12-28T14:20:31.231Z,6.7
2022-12-28T14:25:57.761Z,6.6
2022-12-28T14:31:09.131Z,6.6
2022-12-28T15:14:29.740Z,6.1
2022-12-28T15:19:38.003Z,6.2
2022-12-28T15:30:35.418Z,6.1
2022-12-28T15:41:07.289Z,5.9
2022-12-28T15:46:03.217Z,5.7
2022-12-28T15:50:59.688Z,5.7
2022-12-28T15:56:07.840Z,5.6
2022-12-28T16:01:20.903Z,5.7
2022-12-28T16:06:30.918Z,5.8
2022-12-28T16:11:55.331Z,5.6
2022-12-28T16:17:18.471Z,5.7
2022-12-28T16:22:31.748Z,5.6
2022-12-28T16:27:23.184Z,5.4
2022-12-28T16:32:35.648Z,5.4
2022-12-28T16:37:44.857Z,5.2
2022-12-28T16:42:51.794Z,5.1
2022-12-28T16:48:01.748Z,5.1
2022-12-28T16:53:08.667Z,5.3
2022-12-28T16:58:31.366Z,5.3
2022-12-28T17:04:03.642Z,5.3
2022-12-28T17:09:26.800Z,5.3
2022-12-28T17:15:10.743Z,5.3
2022-12-28T17:20:34.061Z,5.2
2022-12-28T17:25:57.408Z,5.3
2022-12-28T17:31:27.336Z,5.3
2022-12-28T17:36:50.512Z,5.3
2022-12-28T17:42:17.048Z,5.3
2022-12-28T17:47:29.916Z,5.1
2022-12-28T17:52:56.781Z,4.9
2022-12-28T17:58:22.340Z,4.8
2022-12-28T18:03:50.713Z,4.8
2022-12-28T18:08:58.338Z,4.8
2022-12-28T18:14:20.623Z,4.9
2022-12-28T18:19:49.908Z,4.8
2022-12-28T18:25:19.912Z,4.9
2022-12-28T18:30:26.687Z,4.8
2022-12-28T18:35:52.425Z,4.9
2022-12-28T18:41:21.341Z,4.9
2022-12-28T18:46:13.463Z,4.9
2022-12-28T18:51:36.353Z,5
2022-12-28T18:56:48.375Z,5.2
2022-12-28T19:08:06.205Z,5.1
2022-12-28T19:13:21.387Z,4.9
2022-12-28T19:18:49.352Z,5.4
2022-12-28T19:24:16.689Z,5.4
2022-12-28T19:29:40.119Z,5.4
2022-12-28T19:35:05.260Z,5.4
2022-12-28T19:40:31.076Z,5.4
2022-12-28T19:46:00.464Z,5.4
2022-12-28T19:51:30.189Z,5.4
2022-12-28T19:56:53.284Z,5.5
2022-12-28T20:02:18.399Z,5.5
2022-12-28T20:07:42.833Z,5.4
2022-12-28T20:12:50.400Z,5.4
2022-12-28T20:18:14.396Z,5.4
2022-12-28T20:23:56.159Z,5.4
2022-12-28T20:29:20.167Z,5.4
2022-12-28T20:34:31.461Z,5.4
2022-12-28T20:39:22.865Z,5.3
2022-12-28T20:44:30.143Z,5.3
2022-12-28T20:53:59.455Z,5.3
2022-12-28T20:59:15.122Z,5.1
2022-12-28T21:04:23.650Z,5
2022-12-28T21:14:23.468Z,4.8
2022-12-28T21:19:31.078Z,4.8
2022-12-28T21:24:40.157Z,4.8
2022-12-28T21:30:03.237Z,4.8
2022-12-28T21:35:32.136Z,4.6
2022-12-28T21:40:40.900Z,4.5
2022-12-28T21:45:32.585Z,4.4
2022-12-28T21:50:55.727Z,4.6
2022-12-28T21:56:02.957Z,4.6
2022-12-28T22:01:10.193Z,4.5
2022-12-28T22:06:23.089Z,4.6
2022-12-28T22:11:30.643Z,4.4
2022-12-28T22:16:53.426Z,4.6
2022-12-28T22:22:47.274Z,4.6
2022-12-28T22:28:10.113Z,4.6
2022-12-28T22:33:17.858Z,4.6
2022-12-28T22:38:42.844Z,4.6
2022-12-28T22:43:50.620Z,4.5
2022-12-28T22:49:14.244Z,4.4
2022-12-28T22:54:28.023Z,4.4
2022-12-28T22:59:38.157Z,4.4
2022-12-28T23:05:02.508Z,4.4
2022-12-28T23:10:31.074Z,4.5
2022-12-28T23:15:22.790Z,4.6
2022-12-28T23:20:46.517Z,4.5
2022-12-28T23:26:09.645Z,4.5
2022-12-28T23:31:01.280Z,4.4
2022-12-28T23:35:53.457Z,4.4
2022-12-28T23:41:16.867Z,4.4
2022-12-28T23:46:22.703Z,4.4
2022-12-28T23:51:33.148Z,4.4
2022-12-28T23:56:42.600Z,4.4
